Terminal Aerodrome Forecast
Issued by NWS Lake Charles, LA

Home | Current Version | Previous Version | Text Only | Print | Product List | Glossary On
Versions: 1 2 3 4 5 6 7 8 9 10 11 12 13
000
FTUS44 KLCH 291700
TAFLFT
TAF
KLFT 291732Z 2918/3018 14008KT P6SM VCTS SCT025CB OVC100
     FM292300 12005KT P6SM VCTS SCT025CB OVC050
     FM301400 17007KT P6SM VCTS SCT025CB OVC050=

USA.gov is the U.S. government's official web portal to all federal, state and local government web resources and services.